Time;durP1;ratioP1;P1;durP2;ratioP2;P2;SDS_P1;SDS_P2;PMS_P1;PMS_P2;Temp;Humidity;BMP_temperature;BMP_pressure;BME280_temperature;BME280_humidity;BME280_pressure;Samples;Min_cycle;Max_cycle;Signal;HPM_P1;HPM_P2
2022/06/17 00:00:19;;;;;;;4.63;3.67;;;21.20;54.90;;;;;;5033045;28;20446;-89
2022/06/17 00:02:46;;;;;;;6.23;4.60;;;21.20;55.10;;;;;;5027123;28;20473;-89
2022/06/17 00:05:13;;;;;;;3.87;3.47;;;21.20;54.90;;;;;;5027130;28;20434;-90
2022/06/17 00:07:41;;;;;;;5.30;4.10;;;21.20;54.80;;;;;;5031557;28;20450;-89
2022/06/17 00:10:17;;;;;;;4.60;4.20;;;21.30;54.90;;;;;;5034524;28;20438;-89
2022/06/17 00:12:46;;;;;;;4.57;4.17;;;21.20;55.30;;;;;;5031107;28;20509;-88
2022/06/17 00:15:12;;;;;;;5.27;4.60;;;21.20;55.40;;;;;;5032156;28;20449;-89
2022/06/17 00:17:39;;;;;;;3.93;3.53;;;21.10;55.30;;;;;;5037165;28;20487;-90
2022/06/17 00:20:08;;;;;;;3.90;3.50;;;21.00;55.40;;;;;;5029450;28;20449;-89
2022/06/17 00:22:45;;;;;;;4.10;3.70;;;20.90;55.60;;;;;;5016993;28;20823;-89
2022/06/17 00:25:22;;;;;;;4.17;3.77;;;20.90;55.70;;;;;;5015963;28;20446;-89
2022/06/17 00:27:50;;;;;;;4.43;4.03;;;20.90;55.70;;;;;;5024384;28;20441;-87
2022/06/17 00:30:19;;;;;;;11.23;4.40;;;20.90;55.70;;;;;;5020171;28;20512;-87
2022/06/17 00:32:46;;;;;;;4.37;3.47;;;20.80;55.80;;;;;;5015145;28;20470;-88
2022/06/17 00:35:13;;;;;;;5.33;3.90;;;20.80;56.10;;;;;;5023696;28;20451;-87
2022/06/17 00:37:40;;;;;;;3.73;3.43;;;20.90;56.40;;;;;;5025882;28;20824;-88
2022/06/17 00:40:14;;;;;;;5.63;4.13;;;20.80;56.20;;;;;;5027724;28;20789;-88
2022/06/17 00:42:42;;;;;;;3.90;3.57;;;20.70;56.70;;;;;;5014240;28;20474;-88
2022/06/17 00:45:25;;;;;;;4.93;4.10;;;20.60;56.80;;;;;;5015251;28;20543;-88
2022/06/17 00:47:56;;;;;;;3.70;3.40;;;20.70;57.20;;;;;;5019505;28;20446;-87
2022/06/17 00:50:29;;;;;;;4.60;4.20;;;20.70;56.90;;;;;;5021481;28;20934;-87
2022/06/17 00:53:04;;;;;;;4.70;3.73;;;20.60;57.70;;;;;;5019679;28;20481;-87
2022/06/17 00:55:36;;;;;;;4.00;3.47;;;20.50;57.40;;;;;;5013768;28;20450;-87
2022/06/17 00:58:11;;;;;;;3.30;3.00;;;20.50;57.90;;;;;;5014185;28;20460;-88
2022/06/17 01:00:39;;;;;;;4.10;3.70;;;20.40;57.90;;;;;;5021953;28;20548;-87
2022/06/17 01:03:09;;;;;;;4.07;3.60;;;20.40;58.20;;;;;;5024578;28;20477;-87
2022/06/17 01:05:40;;;;;;;5.00;3.50;;;20.30;58.40;;;;;;5015408;28;20447;-87
2022/06/17 01:08:14;;;;;;;3.63;3.10;;;20.40;58.60;;;;;;5014207;28;20437;-87
2022/06/17 01:10:41;;;;;;;4.13;3.73;;;20.40;58.70;;;;;;5014353;28;20449;-88
2022/06/17 01:13:09;;;;;;;5.10;3.63;;;20.30;58.80;;;;;;5013325;28;20464;-88
2022/06/17 01:15:38;;;;;;;4.00;3.60;;;20.20;59.10;;;;;;5030302;28;20479;-87
2022/06/17 01:18:07;;;;;;;3.00;2.70;;;20.20;59.50;;;;;;5023657;28;20463;-87
2022/06/17 01:20:36;;;;;;;6.20;3.23;;;20.10;59.80;;;;;;5026861;28;20459;-89
2022/06/17 01:23:11;;;;;;;5.53;3.70;;;20.10;60.40;;;;;;5027987;28;20471;-88
2022/06/17 01:25:41;;;;;;;4.67;3.93;;;20.00;60.60;;;;;;5018966;28;20456;-85
2022/06/17 01:28:10;;;;;;;4.53;3.90;;;19.90;61.10;;;;;;5021806;28;20939;-85
2022/06/17 01:30:40;;;;;;;4.20;3.20;;;19.90;62.20;;;;;;5020596;28;20454;-85
2022/06/17 01:33:11;;;;;;;4.13;3.30;;;19.80;62.50;;;;;;5020315;28;20481;-85
2022/06/17 01:35:42;;;;;;;4.43;3.40;;;19.70;62.70;;;;;;5022592;28;20502;-85
2022/06/17 01:38:10;;;;;;;4.10;3.70;;;19.70;63.30;;;;;;5024770;28;20452;-85
2022/06/17 01:40:37;;;;;;;4.30;3.43;;;19.70;63.80;;;;;;5024953;28;20435;-85
2022/06/17 01:43:08;;;;;;;4.70;4.20;;;19.60;64.10;;;;;;5022973;28;20463;-85
2022/06/17 01:45:40;;;;;;;6.40;4.30;;;19.50;64.60;;;;;;5035352;28;20485;-85
2022/06/17 01:48:10;;;;;;;5.60;3.83;;;19.50;64.80;;;;;;5033715;28;20439;-85
2022/06/17 01:50:39;;;;;;;5.03;4.37;;;19.40;65.20;;;;;;5024767;28;20472;-84
2022/06/17 01:53:14;;;;;;;5.73;3.50;;;19.30;65.40;;;;;;5025086;28;20518;-85
2022/06/17 01:55:44;;;;;;;5.20;3.17;;;19.20;66.10;;;;;;5025475;28;20443;-85
2022/06/17 01:58:16;;;;;;;3.53;3.23;;;19.20;66.30;;;;;;5027227;28;20440;-85
2022/06/17 02:00:43;;;;;;;7.53;3.80;;;19.10;66.50;;;;;;5039344;28;20454;-85
2022/06/17 02:03:14;;;;;;;3.57;3.07;;;19.10;67.70;;;;;;5038645;28;20473;-85
2022/06/17 02:05:45;;;;;;;7.80;3.80;;;19.00;67.10;;;;;;5031099;28;20447;-85
2022/06/17 02:08:13;;;;;;;5.80;3.73;;;19.10;67.40;;;;;;5036758;28;20439;-85
2022/06/17 02:10:43;;;;;;;8.50;3.93;;;19.10;67.60;;;;;;5031255;28;20438;-85
2022/06/17 02:13:12;;;;;;;5.33;3.70;;;19.00;68.20;;;;;;5033337;28;20470;-85
2022/06/17 02:15:39;;;;;;;6.10;4.50;;;18.90;68.30;;;;;;5030187;28;20450;-85
2022/06/17 02:18:10;;;;;;;4.67;4.27;;;18.70;68.70;;;;;;5032355;28;20453;-84
2022/06/17 02:20:39;;;;;;;4.23;3.43;;;18.70;69.00;;;;;;5028655;28;20448;-84
2022/06/17 02:23:06;;;;;;;5.00;3.53;;;18.70;68.90;;;;;;5024350;28;20472;-83
2022/06/17 02:25:38;;;;;;;3.73;3.40;;;18.70;69.10;;;;;;5026877;28;20482;-83
2022/06/17 02:28:08;;;;;;;4.40;4.00;;;18.60;68.60;;;;;;5023387;28;20441;-85
2022/06/17 02:30:35;;;;;;;4.00;3.60;;;18.60;68.60;;;;;;5018318;28;20449;-85
2022/06/17 02:33:04;;;;;;;5.87;3.37;;;18.60;68.60;;;;;;5018247;28;20989;-85
2022/06/17 02:35:36;;;;;;;3.73;3.33;;;18.50;68.80;;;;;;5019241;28;20449;-84
2022/06/17 02:38:03;;;;;;;5.27;3.37;;;18.50;69.10;;;;;;5019658;28;20480;-84
2022/06/17 02:40:32;;;;;;;4.40;4.00;;;18.40;69.70;;;;;;5040537;28;20434;-86
2022/06/17 02:43:04;;;;;;;5.70;4.70;;;18.50;69.90;;;;;;5037799;28;20466;-83
2022/06/17 02:45:34;;;;;;;5.10;3.70;;;18.50;69.50;;;;;;5025075;28;20477;-84
2022/06/17 02:48:04;;;;;;;5.03;4.07;;;18.50;69.10;;;;;;5017532;28;20487;-85
2022/06/17 02:50:32;;;;;;;4.00;3.70;;;18.50;69.00;;;;;;5018769;28;20450;-83
2022/06/17 02:53:02;;;;;;;4.00;3.60;;;18.50;70.30;;;;;;5019171;28;20513;-85
2022/06/17 02:55:34;;;;;;;4.13;3.60;;;18.40;70.60;;;;;;5020239;28;21145;-83
2022/06/17 02:58:11;;;;;;;4.73;4.23;;;18.30;69.90;;;;;;5025189;28;20473;-84
2022/06/17 03:00:37;;;;;;;5.53;4.00;;;18.30;70.60;;;;;;5024363;28;20441;-83
2022/06/17 03:03:08;;;;;;;4.63;3.80;;;18.30;71.10;;;;;;5031595;28;20999;-83
2022/06/17 03:05:39;;;;;;;4.60;4.03;;;18.30;71.20;;;;;;5037768;28;20450;-84
2022/06/17 03:08:18;;;;;;;4.40;3.60;;;18.30;71.40;;;;;;5038141;28;20446;-84
2022/06/17 03:10:45;;;;;;;7.97;4.23;;;18.30;72.20;;;;;;5022333;28;20950;-85
2022/06/17 03:13:17;;;;;;;4.67;4.20;;;18.30;71.10;;;;;;5030483;28;20525;-83
2022/06/17 03:15:47;;;;;;;5.00;4.40;;;18.30;71.10;;;;;;5025791;28;20493;-85
2022/06/17 03:18:14;;;;;;;4.33;3.93;;;18.40;71.20;;;;;;5018225;28;20500;-84
2022/06/17 03:20:43;;;;;;;4.03;3.50;;;18.40;70.90;;;;;;5017149;28;20496;-85
2022/06/17 03:23:14;;;;;;;6.70;3.90;;;18.40;71.00;;;;;;5016804;28;20470;-84
2022/06/17 03:26:09;;;;;;;4.43;4.00;;;18.50;71.30;;;;;;5018134;28;20490;-80
2022/06/17 03:28:41;;;;;;;4.10;3.53;;;18.50;71.20;;;;;;5016748;28;20469;-83
2022/06/17 03:31:12;;;;;;;4.20;3.80;;;18.50;70.90;;;;;;5016158;28;20454;-83
2022/06/17 03:33:45;;;;;;;6.47;3.80;;;18.50;71.30;;;;;;5016262;28;20479;-83
2022/06/17 03:36:16;;;;;;;6.40;3.97;;;18.50;71.40;;;;;;5016294;28;20865;-82
2022/06/17 03:38:49;;;;;;;5.70;3.87;;;18.50;71.40;;;;;;5015278;28;20454;-83
2022/06/17 03:41:20;;;;;;;5.40;3.57;;;18.50;71.50;;;;;;5016304;28;20504;-83
2022/06/17 03:43:52;;;;;;;4.43;3.87;;;18.50;71.70;;;;;;5016643;28;20524;-83
2022/06/17 03:46:20;;;;;;;4.30;3.80;;;18.40;71.90;;;;;;5016580;28;20991;-84
2022/06/17 03:48:53;;;;;;;4.00;3.60;;;18.40;72.10;;;;;;5017405;28;20856;-83
2022/06/17 03:51:22;;;;;;;7.87;4.07;;;18.40;72.50;;;;;;5024237;28;20443;-81
2022/06/17 03:53:51;;;;;;;6.13;4.17;;;18.40;72.80;;;;;;5032216;28;20462;-82
2022/06/17 03:56:21;;;;;;;4.77;4.17;;;18.40;72.90;;;;;;5028627;28;20442;-83
2022/06/17 03:58:50;;;;;;;5.23;4.07;;;18.40;72.80;;;;;;5016553;28;20460;-83
2022/06/17 04:01:22;;;;;;;8.03;3.83;;;18.40;73.00;;;;;;5015646;28;20485;-83
2022/06/17 04:03:54;;;;;;;4.30;3.90;;;18.40;72.90;;;;;;5031301;23;20498;-86
2022/06/17 04:06:24;;;;;;;5.30;4.20;;;18.40;72.70;;;;;;5014273;28;20453;-86
2022/06/17 04:08:53;;;;;;;4.23;3.43;;;18.40;72.60;;;;;;5015436;28;20458;-87
2022/06/17 04:11:21;;;;;;;6.20;4.20;;;18.50;72.40;;;;;;5014521;28;20447;-86
2022/06/17 04:13:50;;;;;;;4.33;3.70;;;18.50;72.40;;;;;;5012957;28;20462;-86
2022/06/17 04:16:22;;;;;;;6.57;4.00;;;18.60;72.30;;;;;;5023798;28;20452;-85
2022/06/17 04:18:49;;;;;;;7.30;3.53;;;18.60;72.20;;;;;;5037458;28;20435;-86
2022/06/17 04:21:16;;;;;;;3.70;3.30;;;18.60;71.50;;;;;;5026636;28;20431;-86
2022/06/17 04:23:47;;;;;;;5.33;4.27;;;18.60;71.40;;;;;;5016812;28;20462;-86
2022/06/17 04:26:19;;;;;;;3.50;3.30;;;18.70;71.50;;;;;;5018359;28;20998;-86
2022/06/17 04:28:50;;;;;;;5.33;3.97;;;18.70;71.10;;;;;;5013319;28;20864;-86
2022/06/17 04:31:20;;;;;;;10.20;4.20;;;18.70;70.80;;;;;;5013088;28;20450;-86
2022/06/17 04:33:51;;;;;;;5.60;3.67;;;18.70;70.50;;;;;;5012784;28;21077;-86
2022/06/17 04:36:26;;;;;;;3.90;3.40;;;18.70;70.60;;;;;;5013401;28;20438;-86
2022/06/17 04:38:57;;;;;;;8.90;4.57;;;18.70;70.70;;;;;;5013638;28;21018;-86
2022/06/17 04:41:27;;;;;;;4.10;3.37;;;18.70;71.40;;;;;;5012961;28;20454;-86
2022/06/17 04:43:58;;;;;;;4.37;3.93;;;18.70;70.50;;;;;;5013477;28;20466;-86
2022/06/17 04:46:30;;;;;;;5.47;3.77;;;18.70;70.30;;;;;;5019103;28;20488;-86
2022/06/17 04:48:58;;;;;;;3.60;3.30;;;18.70;70.70;;;;;;5020159;28;20454;-86
2022/06/17 04:51:25;;;;;;;4.27;3.50;;;18.80;71.40;;;;;;5015162;28;20954;-86
2022/06/17 04:53:54;;;;;;;4.77;3.37;;;18.80;70.60;;;;;;5013113;28;20477;-86
2022/06/17 04:56:27;;;;;;;5.37;3.90;;;19.00;70.60;;;;;;5012762;28;20442;-86
2022/06/17 04:58:55;;;;;;;5.13;4.03;;;19.10;70.90;;;;;;5012384;28;20485;-86
2022/06/17 05:01:24;;;;;;;4.73;3.60;;;19.10;70.20;;;;;;5012347;28;20794;-86
2022/06/17 05:03:52;;;;;;;4.23;3.73;;;19.20;69.90;;;;;;5012152;28;20878;-86
2022/06/17 05:06:18;;;;;;;4.10;3.33;;;19.20;69.90;;;;;;5022187;28;20540;-87
2022/06/17 05:08:53;;;;;;;4.90;4.40;;;19.30;70.20;;;;;;5042720;28;20427;-86
2022/06/17 05:11:25;;;;;;;5.63;4.13;;;19.30;69.70;;;;;;5021587;28;20438;-87
2022/06/17 05:13:57;;;;;;;4.63;4.20;;;19.40;69.20;;;;;;5015995;28;20468;-87
2022/06/17 05:16:24;;;;;;;7.83;4.23;;;19.30;70.00;;;;;;5021777;28;20443;-86
2022/06/17 05:18:51;;;;;;;5.10;4.00;;;19.40;69.80;;;;;;5025936;28;20467;-87
2022/06/17 05:21:20;;;;;;;5.43;3.27;;;19.40;68.90;;;;;;5023201;28;20943;-86
2022/06/17 05:23:49;;;;;;;3.67;2.93;;;19.80;68.60;;;;;;5022303;28;20466;-86
2022/06/17 05:26:16;;;;;;;3.90;3.17;;;20.40;67.10;;;;;;5043992;28;20479;-86
2022/06/17 05:28:43;;;;;;;4.10;3.70;;;21.20;64.40;;;;;;5035307;28;20477;-86
2022/06/17 05:31:14;;;;;;;4.40;3.63;;;21.90;62.20;;;;;;5017402;28;20453;-86
2022/06/17 05:33:41;;;;;;;5.57;3.57;;;22.70;59.60;;;;;;5023181;28;20878;-86
2022/06/17 05:36:08;;;;;;;3.90;3.50;;;23.30;57.70;;;;;;5020613;28;20464;-87
2022/06/17 05:38:35;;;;;;;4.17;3.73;;;24.00;56.50;;;;;;5022968;28;20465;-87
2022/06/17 05:41:03;;;;;;;3.73;3.40;;;24.50;55.30;;;;;;5022595;28;20441;-87
2022/06/17 05:43:30;;;;;;;5.23;2.90;;;24.90;54.50;;;;;;5024380;28;20495;-87
2022/06/17 05:45:56;;;;;;;4.07;3.77;;;25.20;53.90;;;;;;5018685;28;20529;-86
2022/06/17 05:48:24;;;;;;;3.67;3.10;;;25.80;53.00;;;;;;5026162;28;20440;-87
2022/06/17 05:50:51;;;;;;;3.60;3.30;;;26.10;51.60;;;;;;5025139;28;20447;-87
2022/06/17 05:53:18;;;;;;;2.97;2.77;;;26.20;50.40;;;;;;5027751;28;20461;-87
2022/06/17 05:55:45;;;;;;;4.43;4.03;;;26.20;50.30;;;;;;5021239;28;20447;-87
2022/06/17 05:58:12;;;;;;;4.70;3.43;;;26.50;50.50;;;;;;5043432;28;20511;-87
2022/06/17 06:00:39;;;;;;;4.50;3.33;;;26.60;50.00;;;;;;5036828;28;20444;-87
2022/06/17 06:03:08;;;;;;;4.73;3.80;;;26.80;50.20;;;;;;5040734;28;20597;-87
2022/06/17 06:05:36;;;;;;;5.90;3.30;;;27.20;49.80;;;;;;5041258;28;20485;-87
2022/06/17 06:08:03;;;;;;;4.83;3.63;;;27.50;49.00;;;;;;5030642;28;20812;-86
2022/06/17 06:10:30;;;;;;;5.13;3.73;;;27.50;48.70;;;;;;5024925;28;20553;-86
2022/06/17 06:13:03;;;;;;;4.20;3.87;;;27.50;48.90;;;;;;5033543;28;20464;-88
2022/06/17 06:15:33;;;;;;;3.57;3.20;;;27.80;48.80;;;;;;5024072;28;20444;-88
2022/06/17 06:18:00;;;;;;;3.80;3.27;;;28.20;48.20;;;;;;5029505;28;20429;-88
2022/06/17 06:20:27;;;;;;;4.40;2.90;;;28.50;47.80;;;;;;5041565;28;20437;-89
2022/06/17 06:22:55;;;;;;;3.27;2.73;;;28.40;47.70;;;;;;5038189;28;20465;-89
2022/06/17 06:25:22;;;;;;;3.90;3.30;;;28.60;47.70;;;;;;5045507;28;20637;-89
2022/06/17 06:27:48;;;;;;;4.90;3.27;;;28.90;47.10;;;;;;5032903;28;20444;-88
2022/06/17 06:30:22;;;;;;;3.30;2.70;;;28.60;46.40;;;;;;5033223;28;20445;-88
2022/06/17 06:32:51;;;;;;;3.53;2.97;;;28.30;46.30;;;;;;5038376;28;20473;-90
2022/06/17 06:35:19;;;;;;;2.90;2.67;;;28.40;46.60;;;;;;5026820;28;20477;-88
2022/06/17 06:37:45;;;;;;;3.63;3.13;;;28.20;47.20;;;;;;5019150;28;20460;-89
2022/06/17 06:40:14;;;;;;;6.63;3.20;;;28.00;46.90;;;;;;5018171;28;20454;-88
2022/06/17 06:42:42;;;;;;;5.33;3.50;;;27.90;47.70;;;;;;5016716;28;20470;-88
2022/06/17 06:45:16;;;;;;;5.10;3.43;;;28.30;47.70;;;;;;5016057;28;20830;-88
2022/06/17 06:47:43;;;;;;;3.70;3.40;;;29.10;47.00;;;;;;5015780;28;20450;-88
2022/06/17 06:50:14;;;;;;;5.00;3.57;;;30.10;45.70;;;;;;5034772;28;20452;-90
2022/06/17 06:52:41;;;;;;;6.97;2.90;;;30.60;44.40;;;;;;5027282;28;20454;-88
2022/06/17 06:55:08;;;;;;;3.80;3.37;;;30.70;44.10;;;;;;5015418;28;20508;-88
2022/06/17 06:57:42;;;;;;;5.00;2.90;;;31.10;43.40;;;;;;5015184;28;20930;-88
2022/06/17 07:00:12;;;;;;;5.30;3.20;;;31.40;43.40;;;;;;5019932;28;20446;-89
2022/06/17 07:02:40;;;;;;;4.70;3.37;;;31.80;43.40;;;;;;5036962;28;20461;-90
2022/06/17 07:05:07;;;;;;;3.60;2.80;;;31.70;43.10;;;;;;5020753;28;20451;-88
2022/06/17 07:07:34;;;;;;;4.83;3.37;;;31.80;42.50;;;;;;5015434;28;20441;-88
2022/06/17 07:10:00;;;;;;;4.30;2.87;;;32.00;42.20;;;;;;5014959;28;20508;-88
2022/06/17 07:12:27;;;;;;;6.20;3.20;;;31.80;42.00;;;;;;5015046;28;20926;-88
2022/06/17 07:14:55;;;;;;;4.57;2.90;;;31.70;42.60;;;;;;5015226;28;20462;-88
2022/06/17 07:17:22;;;;;;;3.23;2.90;;;31.80;42.20;;;;;;5014924;28;20970;-88
2022/06/17 07:19:49;;;;;;;7.40;3.20;;;32.00;42.20;;;;;;5015101;28;20899;-89
2022/06/17 07:22:15;;;;;;;4.93;3.63;;;32.60;41.80;;;;;;5022677;28;20474;-88
2022/06/17 07:24:42;;;;;;;4.20;3.60;;;33.20;41.10;;;;;;5016740;28;20457;-88
2022/06/17 07:27:09;;;;;;;6.30;3.20;;;33.40;40.60;;;;;;5016041;28;20852;-89
2022/06/17 07:29:35;;;;;;;4.37;3.57;;;33.30;40.50;;;;;;5016708;28;20473;-88
2022/06/17 07:32:04;;;;;;;4.00;3.17;;;32.30;40.30;;;;;;5014636;28;20490;-88
2022/06/17 07:34:31;;;;;;;3.47;3.10;;;32.50;41.00;;;;;;5027141;28;20442;-90
2022/06/17 07:39:58;;;;;;;3.77;3.47;;;33.40;39.40;;;;;;5033593;28;20457;-88
2022/06/17 07:42:26;;;;;;;5.90;3.50;;;33.20;39.90;;;;;;5019775;28;20538;-88
2022/06/17 07:44:53;;;;;;;4.83;3.47;;;32.90;39.80;;;;;;5014863;28;20555;-88
2022/06/17 07:47:23;;;;;;;4.63;3.60;;;33.00;39.50;;;;;;5014518;28;20482;-88
2022/06/17 07:49:51;;;;;;;4.67;3.93;;;32.40;40.10;;;;;;5014318;28;20431;-89
2022/06/17 07:52:17;;;;;;;10.70;3.93;;;32.80;40.60;;;;;;5013696;28;20450;-89
2022/06/17 07:54:44;;;;;;;4.10;3.27;;;33.10;39.90;;;;;;5015158;28;20458;-89
2022/06/17 07:57:13;;;;;;;3.67;3.23;;;33.80;38.30;;;;;;5015220;28;20820;-89
2022/06/17 07:59:39;;;;;;;3.60;3.30;;;34.40;38.30;;;;;;5016072;28;20517;-90
2022/06/17 08:02:07;;;;;;;4.37;3.47;;;34.30;37.50;;;;;;5014253;28;20941;-89
2022/06/17 08:04:36;;;;;;;4.47;4.03;;;33.90;38.30;;;;;;5013796;28;20493;-90
2022/06/17 08:07:04;;;;;;;5.07;4.57;;;33.60;38.20;;;;;;5014248;28;20478;-89
2022/06/17 08:09:30;;;;;;;4.30;3.80;;;33.30;38.00;;;;;;5014089;28;20811;-89
2022/06/17 08:11:57;;;;;;;3.70;3.40;;;33.10;38.40;;;;;;5013729;28;20441;-89
2022/06/17 08:14:25;;;;;;;6.30;3.83;;;33.20;38.60;;;;;;5014952;28;20494;-89
2022/06/17 08:16:52;;;;;;;6.53;4.40;;;33.30;38.80;;;;;;5015541;28;20457;-89
2022/06/17 08:19:20;;;;;;;4.30;3.90;;;33.70;38.20;;;;;;5015748;28;20442;-89
2022/06/17 08:21:48;;;;;;;5.20;3.40;;;33.90;38.10;;;;;;5028858;28;20434;-88
2022/06/17 08:24:14;;;;;;;5.93;4.37;;;33.60;38.50;;;;;;5027801;28;20485;-89
2022/06/17 08:26:41;;;;;;;4.10;3.80;;;34.20;38.10;;;;;;5013985;28;20487;-89
2022/06/17 08:29:08;;;;;;;4.93;4.10;;;34.00;37.90;;;;;;5013759;28;20446;-89
2022/06/17 08:31:34;;;;;;;4.23;3.77;;;34.10;37.60;;;;;;5013214;28;21043;-89
2022/06/17 08:34:01;;;;;;;4.90;3.70;;;33.70;38.00;;;;;;5013333;28;20470;-88
2022/06/17 08:36:29;;;;;;;6.83;5.10;;;33.70;37.90;;;;;;5025993;28;20465;-90
2022/06/17 08:39:01;;;;;;;3.57;3.23;;;34.50;36.60;;;;;;5035121;28;20438;-88
2022/06/17 08:41:30;;;;;;;3.40;3.10;;;35.00;36.20;;;;;;5026197;28;20450;-89
2022/06/17 08:44:18;;;;;;;6.10;3.60;;;35.60;35.60;;;;;;5035411;28;20466;-89
2022/06/17 08:47:01;;;;;;;6.90;3.40;;;36.40;35.20;;;;;;5036377;28;20493;-90
2022/06/17 08:49:43;;;;;;;4.87;3.30;;;35.60;35.60;;;;;;5031940;28;20858;-89
2022/06/17 08:52:23;;;;;;;3.63;3.33;;;35.50;34.30;;;;;;5016361;28;20449;-89
2022/06/17 08:54:59;;;;;;;4.03;3.40;;;35.90;34.40;;;;;;5016350;28;20450;-89
2022/06/17 08:57:35;;;;;;;4.93;3.27;;;36.30;33.80;;;;;;5035960;28;20445;-91
2022/06/17 09:00:15;;;;;;;2.90;2.70;;;36.80;33.40;;;;;;5025221;28;20441;-89
2022/06/17 09:03:09;;;;;;;5.57;2.87;;;36.80;32.90;;;;;;5015474;28;20822;-89
2022/06/17 09:05:47;;;;;;;3.43;3.20;;;36.50;33.30;;;;;;5014373;28;21009;-89
2022/06/17 09:08:37;;;;;;;4.87;3.10;;;35.70;33.50;;;;;;5013772;28;20480;-89
2022/06/17 09:11:17;;;;;;;3.50;3.20;;;35.90;33.70;;;;;;5015022;28;20449;-90
2022/06/17 09:14:00;;;;;;;3.73;3.03;;;36.60;33.30;;;;;;5013446;28;20887;-90
2022/06/17 09:16:33;;;;;;;4.80;2.93;;;37.30;32.60;;;;;;5013385;28;20772;-90
2022/06/17 09:19:03;;;;;;;4.00;3.03;;;36.70;33.10;;;;;;5012863;28;20446;-90
2022/06/17 09:21:35;;;;;;;4.90;2.67;;;37.40;32.60;;;;;;5013589;28;20469;-89
2022/06/17 09:24:06;;;;;;;3.17;2.87;;;37.80;31.60;;;;;;5013559;28;20463;-89
2022/06/17 09:26:45;;;;;;;3.30;2.93;;;38.50;31.60;;;;;;5014629;28;20474;-90
2022/06/17 09:29:16;;;;;;;3.77;3.20;;;39.80;30.70;;;;;;5013139;28;20989;-89
2022/06/17 09:31:47;;;;;;;3.50;3.20;;;39.50;29.70;;;;;;5012993;28;21008;-90
2022/06/17 09:34:21;;;;;;;2.43;2.23;;;39.30;30.10;;;;;;5012915;28;20469;-89
2022/06/17 09:36:51;;;;;;;6.47;3.10;;;39.30;29.50;;;;;;5013475;28;20496;-90
2022/06/17 09:39:23;;;;;;;3.20;2.90;;;39.90;29.00;;;;;;5017086;28;20458;-89
2022/06/17 09:41:58;;;;;;;2.90;2.50;;;39.90;29.30;;;;;;5021022;28;20843;-89
2022/06/17 09:44:29;;;;;;;3.60;2.50;;;40.10;28.40;;;;;;5016405;28;20457;-90
2022/06/17 09:47:06;;;;;;;2.80;2.60;;;40.90;28.50;;;;;;5016336;28;20500;-90
2022/06/17 09:49:38;;;;;;;3.10;2.80;;;41.50;28.30;;;;;;5017206;28;20446;-90
2022/06/17 09:52:09;;;;;;;3.33;2.80;;;40.90;28.20;;;;;;5016430;28;20456;-89
2022/06/17 09:54:41;;;;;;;3.00;2.70;;;39.70;29.00;;;;;;5028760;28;20450;-89
2022/06/17 09:57:14;;;;;;;2.60;2.40;;;38.80;29.60;;;;;;5037917;28;20445;-89
2022/06/17 09:59:44;;;;;;;3.70;2.10;;;39.60;29.50;;;;;;5015745;28;20866;-89
2022/06/17 10:02:20;;;;;;;3.30;2.73;;;39.50;29.00;;;;;;5022807;28;20446;-90
2022/06/17 10:04:47;;;;;;;2.50;2.30;;;38.60;29.30;;;;;;5064709;22;20920;-83
2022/06/17 10:07:23;;;;;;;4.93;2.87;;;39.40;29.50;;;;;;5055961;28;20483;-84
2022/06/17 10:10:01;;;;;;;2.43;2.23;;;40.00;29.10;;;;;;5057474;28;20558;-84
2022/06/17 10:12:45;;;;;;;2.67;2.40;;;40.50;28.20;;;;;;5056983;28;20447;-84
2022/06/17 10:15:27;;;;;;;2.37;2.17;;;41.10;27.40;;;;;;5038347;28;20971;-83
2022/06/17 10:21:04;;;;;;;2.90;2.37;;;41.30;27.10;;;;;;5041033;28;20424;-84
2022/06/17 10:23:39;;;;;;;2.90;2.00;;;42.00;26.50;;;;;;5041657;28;20551;-83
2022/06/17 10:26:18;;;;;;;1.90;1.80;;;43.30;26.20;;;;;;5039122;28;20820;-84
2022/06/17 10:29:03;;;;;;;3.40;1.90;;;43.70;24.70;;;;;;5035902;28;20507;-84
2022/06/17 10:31:43;;;;;;;3.13;2.47;;;43.40;25.10;;;;;;5035827;28;20430;-84
2022/06/17 10:34:15;;;;;;;3.03;1.87;;;43.20;25.60;;;;;;5037731;28;20482;-84
2022/06/17 10:36:44;;;;;;;2.33;2.07;;;43.20;25.40;;;;;;5042684;28;20448;-83
2022/06/17 10:39:11;;;;;;;2.67;2.27;;;43.40;24.60;;;;;;5046425;28;20448;-85
2022/06/17 10:41:39;;;;;;;2.70;2.10;;;44.30;24.70;;;;;;5039716;28;20441;-85
2022/06/17 10:44:12;;;;;;;2.17;1.97;;;44.70;24.20;;;;;;5046477;28;20469;-84
2022/06/17 10:46:41;;;;;;;1.97;1.77;;;44.10;24.70;;;;;;5038230;28;20539;-85
2022/06/17 10:49:16;;;;;;;2.57;2.03;;;44.30;24.70;;;;;;5035750;28;20445;-84
2022/06/17 10:51:44;;;;;;;2.77;2.37;;;43.60;25.00;;;;;;5035798;28;20440;-84
2022/06/17 10:54:20;;;;;;;2.43;2.13;;;43.40;24.90;;;;;;5035107;28;20838;-83
2022/06/17 10:57:01;;;;;;;2.83;2.43;;;43.50;25.20;;;;;;5035198;28;20448;-83
2022/06/17 10:59:35;;;;;;;3.30;2.30;;;43.40;25.40;;;;;;5035237;28;20453;-84
2022/06/17 11:02:02;;;;;;;2.07;1.87;;;43.50;25.00;;;;;;5035843;28;20443;-84
2022/06/17 11:04:31;;;;;;;2.13;1.93;;;44.00;24.90;;;;;;5034985;28;21002;-85
2022/06/17 11:07:01;;;;;;;2.70;2.50;;;44.40;24.70;;;;;;5035837;28;20496;-84
2022/06/17 11:09:31;;;;;;;2.37;2.17;;;44.50;24.40;;;;;;5035863;28;20445;-84
2022/06/17 11:12:04;;;;;;;3.70;2.50;;;43.80;24.40;;;;;;5035160;28;20456;-84
2022/06/17 11:14:36;;;;;;;3.13;2.47;;;43.10;25.20;;;;;;5036595;28;20469;-84
2022/06/17 11:17:04;;;;;;;2.00;1.70;;;42.20;25.20;;;;;;5035273;28;20995;-84
2022/06/17 11:19:32;;;;;;;2.57;2.33;;;42.40;25.20;;;;;;5035538;28;20964;-83
2022/06/17 11:22:02;;;;;;;2.80;2.40;;;41.20;26.00;;;;;;5034569;28;20481;-84
2022/06/17 11:24:32;;;;;;;2.60;2.20;;;41.20;25.90;;;;;;5034432;28;20476;-83
2022/06/17 11:27:07;;;;;;;2.30;2.10;;;41.40;25.90;;;;;;5034472;28;20698;-84
2022/06/17 11:29:42;;;;;;;2.30;1.90;;;41.10;25.80;;;;;;5035330;28;20444;-90
2022/06/17 11:32:32;;;;;;;4.83;2.50;;;41.90;25.40;;;;;;5037926;28;20452;-84
2022/06/17 11:35:00;;;;;;;2.67;2.47;;;41.60;25.60;;;;;;5036377;28;20500;-84
2022/06/17 11:37:30;;;;;;;2.10;1.90;;;42.30;25.40;;;;;;5037397;28;20445;-83
2022/06/17 11:40:13;;;;;;;1.60;1.40;;;42.60;25.00;;;;;;5039785;28;20445;-84
2022/06/17 11:42:52;;;;;;;5.00;2.10;;;42.70;25.30;;;;;;5039924;28;20449;-83
2022/06/17 11:45:23;;;;;;;2.13;1.93;;;42.60;25.00;;;;;;5039745;28;20456;-83
2022/06/17 11:47:55;;;;;;;3.20;2.30;;;43.80;24.70;;;;;;5038995;28;20477;-83
2022/06/17 11:50:25;;;;;;;1.90;1.60;;;44.40;25.00;;;;;;5042590;28;21027;-83
2022/06/17 11:53:00;;;;;;;2.00;1.90;;;44.60;24.20;;;;;;5042408;28;20448;-83
2022/06/17 11:55:31;;;;;;;2.07;1.70;;;44.10;23.50;;;;;;5041631;28;20453;-83
2022/06/17 11:57:59;;;;;;;2.33;2.13;;;43.50;24.20;;;;;;5039907;28;20906;-84
2022/06/17 12:00:45;;;;;;;5.53;2.10;;;44.50;23.70;;;;;;5039617;28;20548;-84
2022/06/17 12:03:14;;;;;;;1.87;1.73;;;43.50;24.10;;;;;;5039728;28;20473;-83
2022/06/17 12:05:41;;;;;;;2.77;1.73;;;43.00;24.10;;;;;;5039228;28;20448;-84
2022/06/17 12:08:15;;;;;;;2.17;1.50;;;43.50;23.60;;;;;;5040645;28;20484;-83
2022/06/17 12:10:47;;;;;;;2.80;1.53;;;42.90;23.80;;;;;;5049347;28;20440;-82
2022/06/17 12:13:23;;;;;;;1.50;1.40;;;43.60;23.90;;;;;;5044479;28;20532;-83
2022/06/17 12:15:55;;;;;;;4.77;1.97;;;43.10;23.20;;;;;;5044269;28;20425;-83
2022/06/17 12:18:25;;;;;;;3.00;1.83;;;42.70;24.30;;;;;;5050221;28;20446;-83
2022/06/17 12:21:02;;;;;;;3.20;1.53;;;43.30;23.80;;;;;;5054822;28;20428;-83
2022/06/17 12:23:37;;;;;;;2.77;2.20;;;44.50;22.30;;;;;;5037399;28;20453;-84
2022/06/17 12:26:10;;;;;;;2.17;1.47;;;45.40;22.50;;;;;;5034596;28;20448;-84
2022/06/17 12:28:43;;;;;;;2.00;1.47;;;45.80;22.10;;;;;;5032996;28;20485;-83
2022/06/17 12:31:19;;;;;;;1.67;1.20;;;44.90;21.40;;;;;;5032909;28;20941;-83
2022/06/17 12:33:51;;;;;;;1.90;1.63;;;44.10;22.40;;;;;;5033213;28;20535;-83
2022/06/17 12:36:23;;;;;;;4.33;2.17;;;44.90;22.70;;;;;;5033178;28;20954;-83
2022/06/17 12:38:57;;;;;;;1.80;1.70;;;43.80;22.30;;;;;;5034171;28;20495;-83
2022/06/17 12:41:32;;;;;;;1.77;1.57;;;42.20;22.80;;;;;;5032915;28;20437;-83
2022/06/17 12:44:12;;;;;;;2.47;1.60;;;42.00;24.00;;;;;;5046717;28;20479;-83
2022/06/17 12:46:49;;;;;;;1.90;1.50;;;42.10;23.20;;;;;;5055690;28;20437;-83
2022/06/17 12:55:07;;;;;;;2.00;1.70;;;40.80;23.50;;;;;;5035368;28;20444;-83
2022/06/17 12:57:40;;;;;;;1.97;1.87;;;41.50;23.30;;;;;;5037108;28;20441;-83
2022/06/17 13:00:10;;;;;;;1.93;1.37;;;41.90;23.40;;;;;;5033153;28;20460;-83
2022/06/17 13:02:56;;;;;;;2.63;1.60;;;42.70;23.10;;;;;;5033469;28;20449;-83
2022/06/17 13:05:26;;;;;;;1.60;1.40;;;43.10;22.70;;;;;;5033322;28;20987;-83
2022/06/17 13:08:14;;;;;;;1.97;1.87;;;43.50;22.10;;;;;;5033067;28;21004;-83
2022/06/17 13:10:49;;;;;;;1.53;1.30;;;42.50;22.30;;;;;;5033345;28;20996;-83
2022/06/17 13:13:34;;;;;;;1.60;1.50;;;42.80;22.40;;;;;;5037468;28;20490;-83
2022/06/17 13:16:04;;;;;;;2.43;1.50;;;43.20;22.50;;;;;;5043129;28;20440;-83